EGUW

RAF Wattisham Airport

Stowmarket, United Kingdom
METAR EGUW 181350Z AUTO 25012KT 9999 OVC029/// 20/13 Q1020
Observed Flight Rules
Aug-18 @ 13:50 UTC (an hour ago) Marginal Visual Flight Rules
Wind Visibility Clouds
250° at 12 knots 10,000+ meters
  • Overcast at 2,900' AGL
Temperatures Readings
Current 20°C / 68°F
Dewpoint 13°C / 55°F
Humidity 64%
Altimeter 30.12" Hg
Pressure 1020 hPa
Elevation 87
METAR EGUW 181350Z AUTO 25012KT 9999 OVC029/// 20/13 Q1020
Observed Flight Rules
Aug-18 @ 13:50 UTC
(an hour ago)
MVFR
Wind Visibility
250° at 12 knots 10,000+ meters
Clouds
  • Overcast at 2,900' AGL
Temperature Dewpoint
20°C / 68°F 13°C / 55°F
Humidity Altimeter Pressure
64% 30.12" Hg 1020 hPa